Time;durP1;ratioP1;P1;durP2;ratioP2;P2;SDS_P1;SDS_P2;PMS_P1;PMS_P2;Temp;Humidity;BMP_temperature;BMP_pressure;BME280_temperature;BME280_humidity;BME280_pressure;Samples;Min_cycle;Max_cycle;Signal;HPM_P1;HPM_P2
2023/01/13 00:00:31;;;;;;;0.40;0.30;;;19.30;55.70;;;;;;6317660;28;20031;-67
2023/01/13 00:03:31;;;;;;;0.20;0.20;;;19.30;55.70;;;;;;6317110;28;20077;-67
2023/01/13 00:06:32;;;;;;;0.20;0.20;;;19.30;55.70;;;;;;6317120;28;20028;-67
2023/01/13 00:09:33;;;;;;;0.43;0.20;;;19.30;55.70;;;;;;6298629;28;20035;-67
2023/01/13 00:12:33;;;;;;;0.10;0.10;;;19.30;55.70;;;;;;6316794;28;20492;-68
2023/01/13 00:15:34;;;;;;;0.43;0.20;;;19.30;55.70;;;;;;6316909;28;20020;-67
2023/01/13 00:18:35;;;;;;;0.20;0.20;;;19.30;55.80;;;;;;6317212;28;20042;-67
2023/01/13 00:21:36;;;;;;;0.20;0.20;;;19.30;55.70;;;;;;6317324;28;20076;-67
2023/01/13 00:24:37;;;;;;;0.40;0.30;;;19.30;55.70;;;;;;6316613;28;20084;-67
2023/01/13 00:27:38;;;;;;;0.75;0.40;;;19.30;56.40;;;;;;6319868;28;20039;-67
2023/01/13 00:30:39;;;;;;;0.20;0.20;;;19.30;55.70;;;;;;6321545;28;20031;-67
2023/01/13 00:33:40;;;;;;;0.22;0.22;;;19.30;55.70;;;;;;6321619;28;20016;-68
2023/01/13 00:36:41;;;;;;;0.57;0.20;;;19.20;55.80;;;;;;6321417;28;20416;-67
2023/01/13 00:39:41;;;;;;;0.20;0.20;;;19.30;55.70;;;;;;6302851;28;20085;-67
2023/01/13 00:46:02;;;;;;;0.20;0.20;;;19.30;55.70;;;;;;6321114;28;20396;-67
2023/01/13 00:49:03;;;;;;;0.30;0.30;;;19.30;55.80;;;;;;6321000;28;20028;-67
2023/01/13 00:52:04;;;;;;;0.25;0.20;;;19.30;55.70;;;;;;6321300;28;20635;-68
2023/01/13 00:55:05;;;;;;;0.20;0.20;;;19.30;55.70;;;;;;6320918;28;20034;-67
2023/01/13 00:58:06;;;;;;;1.08;0.50;;;19.30;55.80;;;;;;6302901;28;20449;-67
2023/01/13 01:01:13;;;;;;;0.22;0.20;;;19.30;55.80;;;;;;6321011;28;20032;-67
2023/01/13 01:04:14;;;;;;;0.20;0.20;;;19.30;55.70;;;;;;6320941;28;20031;-67
2023/01/13 01:07:14;;;;;;;0.47;0.20;;;19.30;55.80;;;;;;6320728;28;20024;-67
2023/01/13 01:10:15;;;;;;;1.05;0.30;;;19.20;55.70;;;;;;6302214;28;20024;-67
2023/01/13 01:13:16;;;;;;;0.20;0.20;;;19.30;55.80;;;;;;6320875;28;20165;-67
2023/01/13 01:16:18;;;;;;;0.22;0.20;;;19.30;55.80;;;;;;6320410;28;20233;-67
2023/01/13 01:19:19;;;;;;;0.20;0.20;;;19.30;55.80;;;;;;6320830;28;20605;-67
2023/01/13 01:22:19;;;;;;;0.17;0.10;;;19.30;55.80;;;;;;6320540;28;20043;-67
2023/01/13 01:25:20;;;;;;;0.20;0.20;;;19.30;55.80;;;;;;6301781;28;20027;-67
2023/01/13 01:28:21;;;;;;;0.10;0.10;;;19.30;55.80;;;;;;6320375;28;20024;-68
2023/01/13 01:31:25;;;;;;;0.15;0.10;;;19.30;55.80;;;;;;6320124;28;20020;-67
2023/01/13 01:34:26;;;;;;;0.30;0.25;;;19.30;55.80;;;;;;6302274;28;20028;-67
2023/01/13 01:37:27;;;;;;;0.30;0.10;;;19.30;55.80;;;;;;6319623;28;20028;-67
2023/01/13 01:40:27;;;;;;;0.20;0.20;;;19.30;55.80;;;;;;6301098;28;20568;-67
2023/01/13 01:43:58;;;;;;;0.20;0.17;;;19.30;55.80;;;;;;6301044;28;20488;-67
2023/01/13 01:46:59;;;;;;;0.10;0.10;;;19.30;55.90;;;;;;6319639;28;20049;-67
2023/01/13 01:50:01;;;;;;;0.50;0.20;;;19.30;55.80;;;;;;6319608;28;20424;-67
2023/01/13 01:53:12;;;;;;;0.13;0.10;;;19.30;55.80;;;;;;6301579;28;20055;-67
2023/01/13 01:56:14;;;;;;;0.20;0.20;;;19.30;55.80;;;;;;6318974;28;20046;-67
2023/01/13 01:59:15;;;;;;;0.20;0.20;;;19.30;55.80;;;;;;6319496;28;20101;-67
2023/01/13 02:02:16;;;;;;;0.10;0.10;;;19.30;55.80;;;;;;6318215;28;20107;-67
2023/01/13 02:05:17;;;;;;;0.30;0.10;;;19.30;55.90;;;;;;6319803;28;20758;-67
2023/01/13 02:08:19;;;;;;;0.10;0.10;;;19.30;55.90;;;;;;6319281;28;20032;-67
2023/01/13 02:14:51;;;;;;;0.10;0.10;;;19.30;55.80;;;;;;6319456;28;20485;-67
2023/01/13 02:18:03;;;;;;;0.17;0.13;;;19.30;55.80;;;;;;6318818;28;20031;-68
2023/01/13 02:22:00;;;;;;;0.13;0.10;;;19.30;55.80;;;;;;6319153;28;20024;-67
2023/01/13 02:25:12;;;;;;;0.20;0.15;;;19.30;55.90;;;;;;6321077;28;20043;-67
2023/01/13 02:28:24;;;;;;;0.30;0.20;;;19.20;55.80;;;;;;6318322;28;20023;-67
2023/01/13 02:31:43;;;;;;;0.10;0.10;;;19.30;55.80;;;;;;6300263;28;20024;-67
2023/01/13 02:35:05;;;;;;;0.25;0.20;;;19.30;55.80;;;;;;6318714;28;20019;-67
2023/01/13 02:38:08;;;;;;;0.17;0.17;;;19.30;55.80;;;;;;6318866;28;20020;-67
2023/01/13 02:45:19;;;;;;;0.15;0.15;;;19.30;55.90;;;;;;6318620;28;20028;-67
2023/01/13 02:48:22;;;;;;;0.10;0.10;;;19.30;55.80;;;;;;6317999;28;20472;-68
2023/01/13 02:51:25;;;;;;;0.20;0.20;;;19.30;55.90;;;;;;6318224;28;20035;-67
2023/01/13 02:54:28;;;;;;;0.10;0.10;;;19.30;55.90;;;;;;6318006;28;20169;-67
2023/01/13 02:57:32;;;;;;;0.10;0.10;;;19.30;55.90;;;;;;6318025;28;20044;-67
2023/01/13 03:00:35;;;;;;;0.10;0.10;;;19.30;55.90;;;;;;6318282;28;20016;-67
2023/01/13 03:03:36;;;;;;;0.13;0.13;;;19.20;55.80;;;;;;6317428;28;20032;-67
2023/01/13 03:07:01;;;;;;;0.45;0.20;;;19.30;55.90;;;;;;6318056;28;20060;-67
2023/01/13 03:10:13;;;;;;;0.00;0.00;;;19.30;55.90;;;;;;6317879;28;20035;-67
2023/01/13 03:13:45;;;;;;;0.10;0.10;;;19.30;55.90;;;;;;6317720;28;20111;-67
2023/01/13 03:17:10;;;;;;;0.10;0.10;;;19.20;55.80;;;;;;6317912;28;20022;-67
2023/01/13 03:20:19;;;;;;;0.20;0.20;;;19.30;55.90;;;;;;6317802;28;20055;-67
2023/01/13 03:23:36;;;;;;;0.90;0.20;;;19.20;55.80;;;;;;6329150;28;20122;-68
2023/01/13 03:26:57;;;;;;;0.10;0.10;;;19.30;55.90;;;;;;6337850;28;20409;-67
2023/01/13 03:30:08;;;;;;;0.10;0.10;;;19.20;55.80;;;;;;6317347;28;20488;-67
2023/01/13 03:33:13;;;;;;;0.20;0.20;;;19.30;55.90;;;;;;6317614;28;20016;-67
2023/01/13 03:36:17;;;;;;;0.10;0.10;;;19.30;55.90;;;;;;6317510;28;20499;-67
2023/01/13 03:39:24;;;;;;;0.20;0.20;;;19.20;56.50;;;;;;6292513;28;20481;-67
2023/01/13 03:42:27;;;;;;;0.10;0.10;;;19.30;55.90;;;;;;6292028;28;20029;-67
2023/01/13 03:45:31;;;;;;;0.47;0.20;;;19.30;55.90;;;;;;6312496;28;20036;-68
2023/01/13 03:48:34;;;;;;;0.65;0.10;;;19.30;55.90;;;;;;6317752;28;20065;-67
2023/01/13 03:51:40;;;;;;;0.10;0.10;;;19.20;55.80;;;;;;6298915;28;20119;-67
2023/01/13 03:54:52;;;;;;;;;;;19.30;55.90;;;;;;6299752;28;20164;-67
2023/01/13 03:58:13;;;;;;;0.10;0.10;;;19.30;55.90;;;;;;6317349;28;19904;-68
2023/01/13 04:01:22;;;;;;;0.10;0.10;;;19.30;55.90;;;;;;6317844;28;20096;-67
2023/01/13 04:04:55;;;;;;;0.20;0.20;;;19.30;55.90;;;;;;6322027;28;20489;-67
2023/01/13 04:08:13;;;;;;;0.10;0.10;;;19.30;55.90;;;;;;6321641;28;20119;-67
2023/01/13 04:11:24;;;;;;;0.13;0.10;;;19.30;56.60;;;;;;6322005;28;20028;-67
2023/01/13 04:14:27;;;;;;;0.15;0.10;;;19.30;55.90;;;;;;6321761;28;20018;-67
2023/01/13 04:17:28;;;;;;;0.10;0.10;;;19.30;55.90;;;;;;6322235;28;20102;-67
2023/01/13 04:20:28;;;;;;;0.38;0.20;;;19.30;55.90;;;;;;6321794;28;20012;-67
2023/01/13 04:23:29;;;;;;;0.10;0.10;;;19.30;55.90;;;;;;6309315;28;20443;-68
2023/01/13 04:26:30;;;;;;;0.13;0.13;;;19.30;56.00;;;;;;6296532;28;20576;-67
2023/01/13 04:29:30;;;;;;;0.25;0.25;;;19.30;56.00;;;;;;6296727;28;20512;-67
2023/01/13 04:32:31;;;;;;;0.20;0.20;;;19.30;55.90;;;;;;6296063;28;20104;-68
2023/01/13 04:35:33;;;;;;;0.10;0.10;;;19.30;56.00;;;;;;6296373;28;20028;-67
2023/01/13 04:38:34;;;;;;;0.10;0.10;;;19.30;56.00;;;;;;6296479;28;20388;-67
2023/01/13 04:44:55;;;;;;;0.20;0.10;;;19.30;55.90;;;;;;6301918;28;20025;-67
2023/01/13 04:47:56;;;;;;;0.17;0.17;;;19.30;56.00;;;;;;6300616;28;20059;-67
2023/01/13 04:50:56;;;;;;;0.60;0.20;;;19.30;56.00;;;;;;6321175;28;20785;-67
2023/01/13 04:53:57;;;;;;;0.10;0.10;;;19.30;56.00;;;;;;6321016;28;20034;-67
2023/01/13 04:56:58;;;;;;;0.10;0.10;;;19.30;55.90;;;;;;6303020;28;20401;-67
2023/01/13 05:00:36;;;;;;;0.30;0.10;;;19.30;55.90;;;;;;6303124;28;20032;-67
2023/01/13 05:03:36;;;;;;;0.20;0.10;;;19.30;55.90;;;;;;6320514;28;20432;-67
2023/01/13 05:06:37;;;;;;;0.10;0.10;;;19.30;55.90;;;;;;6320902;28;20040;-67
2023/01/13 05:09:38;;;;;;;0.00;0.00;;;19.30;55.80;;;;;;6305097;28;20109;-68
2023/01/13 05:19:23;;;;;;;0.35;0.10;;;19.30;55.80;;;;;;6278157;28;20498;-67
2023/01/13 05:25:46;;;;;;;0.30;0.20;;;19.30;55.80;;;;;;6320653;28;20474;-67
2023/01/13 05:28:46;;;;;;;0.20;0.20;;;19.30;55.80;;;;;;6314553;28;20043;-67
2023/01/13 05:31:47;;;;;;;0.20;0.20;;;19.30;55.80;;;;;;6295728;28;20703;-68
2023/01/13 05:34:48;;;;;;;0.22;0.20;;;19.30;55.80;;;;;;6308331;28;20476;-67
2023/01/13 05:37:49;;;;;;;0.10;0.10;;;19.30;55.80;;;;;;6301541;28;20540;-67
2023/01/13 05:44:10;;;;;;;0.08;0.08;;;19.30;55.80;;;;;;6270338;28;20024;-67
2023/01/13 05:47:11;;;;;;;0.10;0.10;;;19.30;55.90;;;;;;6301223;28;20404;-67
2023/01/13 05:50:12;;;;;;;0.10;0.10;;;19.30;55.90;;;;;;6304978;28;20500;-67
2023/01/13 05:53:13;;;;;;;0.10;0.10;;;19.30;55.80;;;;;;6294503;28;20060;-67
2023/01/13 05:56:16;;;;;;;0.10;0.10;;;19.30;55.90;;;;;;6316970;28;20032;-67
2023/01/13 05:59:16;;;;;;;0.32;0.20;;;19.30;56.60;;;;;;6319579;28;20031;-67
2023/01/13 06:02:17;;;;;;;0.10;0.10;;;19.30;55.90;;;;;;6294003;28;20041;-67
2023/01/13 06:05:18;;;;;;;0.13;0.13;;;19.30;55.90;;;;;;6296048;28;20412;-68
2023/01/13 06:08:18;;;;;;;0.10;0.10;;;19.30;55.90;;;;;;6319409;28;20077;-68
2023/01/13 06:11:19;;;;;;;0.10;0.10;;;19.30;55.90;;;;;;6298014;28;20024;-67
2023/01/13 06:14:19;;;;;;;0.30;0.20;;;19.30;56.00;;;;;;6280540;28;20009;-67
2023/01/13 06:17:20;;;;;;;0.40;0.13;;;19.30;56.00;;;;;;6319389;28;20758;-67
2023/01/13 06:20:21;;;;;;;0.10;0.10;;;19.30;55.90;;;;;;6307817;28;20483;-67
2023/01/13 06:23:22;;;;;;;0.10;0.10;;;19.30;56.00;;;;;;6305779;28;20044;-67
2023/01/13 06:26:26;;;;;;;0.28;0.10;;;19.30;56.00;;;;;;6331928;28;20024;-67
2023/01/13 06:29:27;;;;;;;0.10;0.10;;;19.30;56.00;;;;;;6341475;28;20028;-67
2023/01/13 06:32:33;;;;;;;0.15;0.10;;;19.30;56.00;;;;;;6319078;28;20093;-68
2023/01/13 06:35:36;;;;;;;0.00;0.00;;;19.30;56.00;;;;;;6318641;28;20103;-67
2023/01/13 06:38:39;;;;;;;0.47;0.10;;;19.30;56.00;;;;;;6318863;28;20020;-67
2023/01/13 06:44:59;;;;;;;0.15;0.15;;;19.30;56.00;;;;;;6318210;28;20536;-68
2023/01/13 06:48:00;;;;;;;0.57;0.30;;;19.30;56.00;;;;;;6318147;28;20086;-67
2023/01/13 06:51:03;;;;;;;0.20;0.20;;;19.30;56.00;;;;;;6318531;28;20032;-67
2023/01/13 06:54:03;;;;;;;0.10;0.10;;;19.30;56.00;;;;;;6318351;28;20024;-67
2023/01/13 06:57:04;;;;;;;0.20;0.20;;;19.30;56.00;;;;;;6318491;28;20028;-67
2023/01/13 07:00:05;;;;;;;0.28;0.17;;;19.30;56.00;;;;;;6296802;28;20436;-68
2023/01/13 07:03:14;;;;;;;0.45;0.20;;;19.30;56.00;;;;;;6300165;28;20064;-67
2023/01/13 07:06:15;;;;;;;0.22;0.20;;;19.30;56.00;;;;;;6325988;28;20123;-67
2023/01/13 07:09:16;;;;;;;0.10;0.10;;;19.30;56.00;;;;;;6304337;28;20024;-67
2023/01/13 07:12:17;;;;;;;0.10;0.10;;;19.30;56.00;;;;;;6319638;28;20505;-67
2023/01/13 07:15:17;;;;;;;0.20;0.20;;;19.30;56.00;;;;;;6319773;28;20024;-67
2023/01/13 07:18:18;;;;;;;0.20;0.20;;;19.30;56.10;;;;;;6301634;28;20020;-67
2023/01/13 07:21:19;;;;;;;0.10;0.10;;;19.30;56.00;;;;;;6302970;28;20024;-67
2023/01/13 07:24:21;;;;;;;0.35;0.13;;;19.30;56.10;;;;;;6319461;28;20047;-67
2023/01/13 07:27:22;;;;;;;0.25;0.20;;;19.30;56.00;;;;;;6319772;28;20491;-67
2023/01/13 07:30:22;;;;;;;3.60;0.10;;;19.30;56.10;;;;;;6318707;28;20024;-67
2023/01/13 07:33:23;;;;;;;0.10;0.10;;;19.30;56.10;;;;;;6319188;28;20030;-68
2023/01/13 07:36:24;;;;;;;0.52;0.20;;;19.30;56.10;;;;;;6276086;28;20043;-66
2023/01/13 07:39:25;;;;;;;0.85;0.30;;;19.40;56.10;;;;;;6320032;28;20461;-67
2023/01/13 07:45:45;;;;;;;6.70;0.30;;;19.40;56.00;;;;;;6310190;28;20020;-67
2023/01/13 07:48:47;;;;;;;0.35;0.20;;;19.40;56.20;;;;;;6300695;28;20027;-67
2023/01/13 07:51:48;;;;;;;1.25;0.30;;;19.40;56.00;;;;;;6319085;28;20066;-67
2023/01/13 07:54:49;;;;;;;1.35;0.30;;;19.40;55.90;;;;;;6300364;28;20024;-68
2023/01/13 07:57:50;;;;;;;2.55;0.25;;;19.40;55.80;;;;;;6320533;28;20077;-68
2023/01/13 08:00:51;;;;;;;1.00;0.30;;;19.50;55.80;;;;;;6318866;28;20028;-68
2023/01/13 08:03:55;;;;;;;3.65;0.30;;;19.40;55.70;;;;;;6318727;28;20444;-68
2023/01/13 08:06:55;;;;;;;5.35;0.30;;;19.40;55.70;;;;;;6311131;28;20055;-68
2023/01/13 08:09:56;;;;;;;0.65;0.30;;;19.40;55.80;;;;;;6282818;28;20033;-68
2023/01/13 08:16:16;;;;;;;9.13;0.55;;;19.40;55.80;;;;;;6293577;28;20017;-69
2023/01/13 08:19:17;;;;;;;1.25;0.30;;;19.40;55.80;;;;;;6302096;28;20029;-68
2023/01/13 08:22:18;;;;;;;4.93;0.40;;;19.40;55.80;;;;;;6300102;28;20127;-67
2023/01/13 08:25:18;;;;;;;1.15;0.20;;;19.50;55.80;;;;;;6320071;28;20028;-68
2023/01/13 08:28:19;;;;;;;1.35;0.28;;;19.40;55.70;;;;;;6318042;28;20683;-68
2023/01/13 08:31:20;;;;;;;0.20;0.15;;;19.40;55.70;;;;;;6313103;28;20381;-67
2023/01/13 08:34:21;;;;;;;1.15;0.20;;;19.40;55.80;;;;;;6318413;28;20032;-68
2023/01/13 08:37:22;;;;;;;0.28;0.20;;;19.40;55.70;;;;;;6299675;28;20170;-69
2023/01/13 08:40:23;;;;;;;6.47;1.27;;;19.40;55.70;;;;;;6317664;28;20039;-68
2023/01/13 08:43:23;;;;;;;1.67;0.40;;;19.40;55.80;;;;;;6317449;28;20097;-69
2023/01/13 08:46:24;;;;;;;0.45;0.20;;;19.40;55.80;;;;;;6317440;28;20094;-69
2023/01/13 08:49:25;;;;;;;0.17;0.10;;;19.40;55.80;;;;;;6321246;28;20042;-69
2023/01/13 08:52:27;;;;;;;1.10;0.30;;;19.40;55.80;;;;;;6322745;28;20020;-69
2023/01/13 08:55:28;;;;;;;0.35;0.20;;;19.40;55.80;;;;;;6321679;28;20020;-69
2023/01/13 08:58:29;;;;;;;0.20;0.20;;;19.40;55.80;;;;;;6322583;28;20051;-69
2023/01/13 09:01:30;;;;;;;1.52;0.30;;;19.40;55.80;;;;;;6308357;28;20018;-69
2023/01/13 09:04:31;;;;;;;7.57;0.28;;;19.40;55.90;;;;;;6318190;28;20089;-70
2023/01/13 09:07:34;;;;;;;1.55;0.30;;;19.40;55.90;;;;;;6304046;28;20024;-69
2023/01/13 09:10:34;;;;;;;0.20;0.20;;;19.40;55.90;;;;;;6296874;28;20061;-68
2023/01/13 09:13:35;;;;;;;0.88;0.22;;;19.40;55.90;;;;;;6298970;28;20035;-69
2023/01/13 09:16:36;;;;;;;0.55;0.20;;;19.40;56.60;;;;;;6298045;28;20036;-69
2023/01/13 09:19:37;;;;;;;0.52;0.25;;;19.40;55.90;;;;;;6316538;28;20035;-68
2023/01/13 09:22:39;;;;;;;1.50;0.40;;;19.40;55.90;;;;;;6321423;28;20518;-69
2023/01/13 09:25:40;;;;;;;0.63;0.17;;;19.40;55.90;;;;;;6295180;28;20020;-69
2023/01/13 09:28:41;;;;;;;2.92;0.25;;;19.40;55.90;;;;;;6314189;28;20035;-69
2023/01/13 09:31:42;;;;;;;2.53;0.40;;;19.50;56.10;;;;;;6320711;28;20016;-69
2023/01/13 09:35:01;;;;;;;1.25;0.30;;;19.60;55.90;;;;;;6320886;28;20099;-68
2023/01/13 09:38:02;;;;;;;3.20;0.45;;;19.80;55.30;;;;;;6339422;28;20016;-67
2023/01/13 09:43:52;;;;;;;1.45;0.20;;;19.80;55.10;;;;;;6311776;28;20054;-70
2023/01/13 09:45:13;;;;;;;4.38;0.30;;;19.80;55.40;;;;;;6330177;28;20058;-70
2023/01/13 09:48:50;;;;;;;0.57;0.30;;;19.80;55.60;;;;;;6318598;28;20032;-69
2023/01/13 09:52:27;;;;;;;4.75;0.45;;;19.90;55.60;;;;;;6323155;28;20016;-70
2023/01/13 09:55:35;;;;;;;10.63;0.47;;;19.90;55.70;;;;;;6316776;28;20404;-70
2023/01/13 09:58:36;;;;;;;7.40;0.75;;;20.00;56.20;;;;;;6320815;28;20020;-69
2023/01/13 10:01:58;;;;;;;3.15;0.40;;;19.90;55.70;;;;;;6322737;28;20392;-69
2023/01/13 10:05:36;;;;;;;3.20;0.55;;;19.90;55.60;;;;;;6305551;28;20024;-69
2023/01/13 10:08:39;;;;;;;1.73;0.65;;;19.90;55.20;;;;;;6301074;28;20024;-69
2023/01/13 10:15:03;;;;;;;4.18;0.82;;;19.80;55.30;;;;;;6327801;28;20043;-70
2023/01/13 10:18:26;;;;;;;4.15;0.70;;;19.80;55.40;;;;;;6320575;28;20376;-69
2023/01/13 10:21:58;;;;;;;1.75;0.57;;;19.80;55.50;;;;;;6293850;28;20032;-69
2023/01/13 10:25:24;;;;;;;1.70;0.70;;;19.80;55.50;;;;;;6320548;28;20393;-69
2023/01/13 10:28:25;;;;;;;2.67;0.50;;;19.80;55.60;;;;;;6320472;28;20494;-69
2023/01/13 10:31:26;;;;;;;0.95;0.38;;;19.80;55.50;;;;;;6320058;28;20062;-69
2023/01/13 10:34:28;;;;;;;2.15;0.50;;;19.80;55.70;;;;;;6312831;28;20017;-69
2023/01/13 10:37:29;;;;;;;2.35;0.50;;;19.80;55.40;;;;;;6312353;28;20032;-69
2023/01/13 10:40:29;;;;;;;2.60;0.50;;;19.80;55.40;;;;;;6320178;28;20031;-69
2023/01/13 10:43:31;;;;;;;1.13;0.50;;;19.80;55.60;;;;;;6319561;28;20389;-69
2023/01/13 10:46:34;;;;;;;1.08;0.50;;;19.80;55.60;;;;;;6319648;28;20024;-69
2023/01/13 10:49:37;;;;;;;0.88;0.40;;;19.80;55.50;;;;;;6301835;28;20028;-69
2023/01/13 10:52:53;;;;;;;2.50;0.63;;;19.80;55.60;;;;;;6319469;28;20024;-70
2023/01/13 10:56:01;;;;;;;2.08;0.68;;;19.80;55.50;;;;;;6318539;28;20008;-69
2023/01/13 10:59:22;;;;;;;1.45;0.45;;;19.80;55.50;;;;;;6305464;28;20438;-67
2023/01/13 11:02:34;;;;;;;0.90;0.47;;;19.80;55.50;;;;;;6308166;28;20168;-69
2023/01/13 11:05:35;;;;;;;0.28;0.22;;;19.80;55.50;;;;;;6320058;28;20020;-69
2023/01/13 11:08:44;;;;;;;1.95;0.47;;;19.80;55.60;;;;;;6319054;28;20020;-68
2023/01/13 11:11:54;;;;;;;1.42;0.50;;;19.80;55.50;;;;;;6300145;28;20433;-68
2023/01/13 11:14:59;;;;;;;1.15;0.60;;;19.80;55.60;;;;;;6302824;28;20484;-68
2023/01/13 11:18:06;;;;;;;1.47;0.40;;;19.80;54.90;;;;;;6292963;28;20066;-69
2023/01/13 11:21:33;;;;;;;1.55;0.70;;;19.80;54.50;;;;;;6300107;28;20755;-68
2023/01/13 11:25:00;;;;;;;0.82;0.50;;;19.80;54.80;;;;;;6317902;28;20051;-69
2023/01/13 11:28:13;;;;;;;5.95;0.57;;;19.80;55.10;;;;;;6313528;28;20044;-69
2023/01/13 11:31:32;;;;;;;1.38;0.50;;;19.80;54.60;;;;;;6320542;28;20460;-69
2023/01/13 11:34:36;;;;;;;1.42;0.45;;;19.80;55.00;;;;;;6301403;28;20479;-69
2023/01/13 11:37:41;;;;;;;2.55;0.65;;;19.80;55.10;;;;;;6300172;28;20089;-69
2023/01/13 11:40:44;;;;;;;;;;;19.80;54.90;;;;;;6319560;28;20103;-68
2023/01/13 11:44:20;;;;;;;2.72;0.60;;;19.80;55.00;;;;;;6304357;28;19914;-69
2023/01/13 11:47:23;;;;;;;;;;;19.80;54.90;;;;;;6317077;28;20513;-70
2023/01/13 11:50:49;;;;;;;1.35;0.60;;;19.80;55.00;;;;;;6319232;28;19907;-69
2023/01/13 11:55:02;;;;;;;3.70;0.60;;;19.90;55.20;;;;;;6320601;28;20028;-69
2023/01/13 11:58:05;;;;;;;3.47;0.70;;;19.90;55.00;;;;;;6311668;28;20114;-69
2023/01/13 12:01:23;;;;;;;4.78;0.52;;;19.90;54.90;;;;;;6318747;28;20067;-68
2023/01/13 12:04:47;;;;;;;5.60;0.70;;;19.90;55.10;;;;;;6311835;28;20111;-69
2023/01/13 12:08:16;;;;;;;2.28;0.47;;;19.90;55.10;;;;;;6270945;28;20036;-69
2023/01/13 12:12:18;;;;;;;2.00;0.55;;;19.90;55.00;;;;;;6303039;28;20027;-70
2023/01/13 12:19:06;;;;;;;5.72;0.75;;;19.90;55.00;;;;;;6320309;28;20643;-70
2023/01/13 12:22:28;;;;;;;1.48;0.55;;;19.90;55.00;;;;;;6300555;28;20111;-70
2023/01/13 12:25:39;;;;;;;1.58;0.40;;;19.90;55.30;;;;;;6343522;28;20384;-69
2023/01/13 12:28:52;;;;;;;2.30;0.70;;;19.90;55.10;;;;;;6323236;28;20059;-70
2023/01/13 12:31:54;;;;;;;0.70;0.30;;;19.90;55.00;;;;;;6323191;28;20393;-69
2023/01/13 12:35:04;;;;;;;1.60;0.40;;;19.90;55.10;;;;;;6322430;28;20027;-69
2023/01/13 12:38:27;;;;;;;1.17;0.70;;;19.90;55.20;;;;;;6304303;28;20020;-69
2023/01/13 12:44:15;;;;;;;5.28;0.68;;;19.90;55.10;;;;;;6303492;28;20031;-69
2023/01/13 12:45:09;;;;;;;3.03;0.88;;;19.90;54.90;;;;;;6314033;28;20032;-69
2023/01/13 12:48:58;;;;;;;3.05;0.57;;;19.80;55.10;;;;;;6321707;28;20020;-68
2023/01/13 12:52:06;;;;;;;3.17;0.50;;;19.80;55.20;;;;;;6306451;28;20048;-70
2023/01/13 12:55:11;;;;;;;4.10;0.77;;;19.90;55.60;;;;;;6321760;28;20059;-70
2023/01/13 12:58:16;;;;;;;;;;;19.90;55.10;;;;;;6304740;28;20508;-70
2023/01/13 13:01:32;;;;;;;7.65;0.70;;;20.00;55.00;;;;;;6304491;28;19904;-68
2023/01/13 13:04:50;;;;;;;5.20;0.50;;;20.00;54.50;;;;;;6321418;28;20101;-69
2023/01/13 13:08:00;;;;;;;2.53;0.60;;;20.00;54.80;;;;;;6321909;28;20017;-69
2023/01/13 13:14:40;;;;;;;3.22;0.52;;;19.90;54.90;;;;;;6320923;28;20491;-69
2023/01/13 13:17:40;;;;;;;1.30;0.57;;;19.90;54.90;;;;;;6321561;28;20028;-69
2023/01/13 13:21:09;;;;;;;2.70;0.65;;;19.90;54.90;;;;;;6320467;28;20020;-69
2023/01/13 13:24:11;;;;;;;2.05;0.75;;;19.90;55.30;;;;;;6280773;28;20051;-69
2023/01/13 13:27:40;;;;;;;5.55;1.15;;;19.90;56.00;;;;;;6303017;28;20032;-71
2023/01/13 13:30:49;;;;;;;1.40;0.55;;;20.00;54.60;;;;;;6320891;28;20020;-70
2023/01/13 13:34:23;;;;;;;3.90;0.85;;;20.10;54.60;;;;;;6320345;28;20024;-71
2023/01/13 13:48:25;;;;;;;7.30;0.60;;;20.10;54.70;;;;;;6323298;28;20052;-70
2023/01/13 13:51:35;;;;;;;3.60;0.80;;;20.00;54.80;;;;;;6304257;28;20049;-69
2023/01/13 13:54:39;;;;;;;4.30;1.20;;;20.00;54.50;;;;;;6310866;28;20492;-69
2023/01/13 13:57:45;;;;;;;2.83;0.40;;;20.00;54.60;;;;;;6307859;28;20059;-69
2023/01/13 14:00:48;;;;;;;3.25;0.47;;;20.00;54.60;;;;;;6320856;28;20016;-68
2023/01/13 14:04:09;;;;;;;1.52;0.60;;;20.00;54.90;;;;;;6302092;28;20131;-69
2023/01/13 14:07:19;;;;;;;2.03;0.57;;;20.00;55.80;;;;;;6332821;28;20022;-69
2023/01/13 14:10:35;;;;;;;2.35;0.80;;;20.00;55.40;;;;;;6321416;28;20031;-68
2023/01/13 14:13:36;;;;;;;3.35;0.90;;;20.00;54.80;;;;;;6302166;28;20020;-70
2023/01/13 14:16:39;;;;;;;3.08;0.68;;;20.00;54.80;;;;;;6320850;28;20028;-70
2023/01/13 14:19:44;;;;;;;21.73;2.15;;;20.00;54.70;;;;;;6302723;28;20422;-69
2023/01/13 14:22:48;;;;;;;;;;;20.00;55.30;;;;;;6315420;28;20119;-69
2023/01/13 14:25:50;;;;;;;1.92;0.70;;;20.00;54.80;;;;;;6295277;28;19915;-69
2023/01/13 14:28:52;;;;;;;6.82;0.90;;;20.00;54.80;;;;;;6277039;28;20025;-69
2023/01/13 14:31:54;;;;;;;3.25;0.70;;;20.00;54.70;;;;;;6285320;28;20020;-70
2023/01/13 14:34:54;;;;;;;3.17;0.70;;;20.00;54.70;;;;;;6296240;28;20474;-69
2023/01/13 14:38:01;;;;;;;4.65;0.65;;;20.00;54.80;;;;;;6310573;28;20052;-67
2023/01/13 14:41:15;;;;;;;1.60;0.65;;;20.00;55.00;;;;;;6318736;28;20480;-68
2023/01/13 14:44:25;;;;;;;4.78;0.80;;;20.00;55.30;;;;;;6312415;28;20057;-67
2023/01/13 14:47:30;;;;;;;5.18;1.02;;;20.00;54.60;;;;;;6317956;28;20104;-68
2023/01/13 14:50:33;;;;;;;2.50;0.80;;;19.90;53.50;;;;;;6294249;28;20074;-67
2023/01/13 14:53:45;;;;;;;3.80;1.30;;;19.90;53.00;;;;;;6285524;28;20032;-69
2023/01/13 14:56:52;;;;;;;4.28;1.17;;;19.90;52.00;;;;;;6289098;28;20481;-69
2023/01/13 15:00:14;;;;;;;4.18;1.17;;;19.90;51.30;;;;;;6300061;28;20470;-69
2023/01/13 15:03:17;;;;;;;4.13;1.30;;;19.90;50.60;;;;;;6293384;28;20020;-69
2023/01/13 15:06:23;;;;;;;4.25;1.17;;;20.00;51.30;;;;;;6300420;28;20039;-68
2023/01/13 15:09:32;;;;;;;3.28;1.15;;;20.00;52.00;;;;;;6300385;28;20489;-70
2023/01/13 15:12:38;;;;;;;5.10;0.98;;;20.00;52.30;;;;;;6308382;28;20043;-69
2023/01/13 15:15:39;;;;;;;3.00;0.98;;;20.00;52.20;;;;;;6277046;28;20092;-69
2023/01/13 15:18:40;;;;;;;4.05;1.25;;;20.00;52.70;;;;;;6305140;28;20016;-68
2023/01/13 15:21:40;;;;;;;5.78;1.30;;;20.00;53.40;;;;;;6284812;28;20032;-68
2023/01/13 15:24:41;;;;;;;5.35;0.95;;;20.00;52.90;;;;;;6310955;28;20040;-69
2023/01/13 15:27:49;;;;;;;3.15;0.95;;;20.00;53.10;;;;;;6293587;28;20406;-68
2023/01/13 15:30:51;;;;;;;2.58;0.93;;;20.00;53.30;;;;;;6298233;28;20043;-67
2023/01/13 15:33:53;;;;;;;2.78;1.00;;;20.00;53.40;;;;;;6306616;28;20017;-67
2023/01/13 15:36:54;;;;;;;3.80;0.80;;;20.00;53.30;;;;;;6293577;28;20032;-67
2023/01/13 15:39:54;;;;;;;5.93;1.40;;;19.90;53.20;;;;;;6303494;28;20029;-68
2023/01/13 15:49:42;;;;;;;5.47;1.60;;;19.90;50.80;;;;;;6307841;28;20794;-67
2023/01/13 15:52:43;;;;;;;3.47;1.02;;;19.90;50.20;;;;;;6297604;28;20073;-68
2023/01/13 15:55:48;;;;;;;4.03;1.30;;;19.90;50.00;;;;;;6295072;28;20021;-68
2023/01/13 15:58:48;;;;;;;5.90;1.40;;;19.90;49.90;;;;;;6295809;28;20524;-68
2023/01/13 16:01:49;;;;;;;5.38;1.50;;;19.90;49.40;;;;;;6298367;28;20273;-68
2023/01/13 16:04:52;;;;;;;7.40;1.83;;;19.90;49.70;;;;;;6300902;28;20023;-68
2023/01/13 16:07:53;;;;;;;9.05;1.75;;;19.80;48.80;;;;;;6289225;28;20480;-69
2023/01/13 16:10:54;;;;;;;10.10;1.60;;;20.00;50.20;;;;;;6305607;28;20031;-69
2023/01/13 16:13:54;;;;;;;8.32;1.85;;;20.00;49.80;;;;;;6298138;28;20069;-70
2023/01/13 16:16:55;;;;;;;5.25;1.35;;;20.00;49.40;;;;;;6305314;28;20425;-70
2023/01/13 16:19:56;;;;;;;13.60;1.75;;;20.00;49.80;;;;;;6315547;28;20031;-69
2023/01/13 16:22:56;;;;;;;8.93;1.40;;;20.00;50.50;;;;;;6319968;28;20093;-69
2023/01/13 16:25:57;;;;;;;5.93;1.40;;;20.00;50.30;;;;;;6313533;28;20031;-69
2023/01/13 16:28:58;;;;;;;5.95;1.40;;;19.90;51.00;;;;;;6316301;28;20461;-69
2023/01/13 16:31:58;;;;;;;3.35;1.08;;;19.90;50.90;;;;;;6321882;28;20031;-70
2023/01/13 16:34:59;;;;;;;4.00;1.30;;;19.90;51.00;;;;;;6306976;28;20389;-69
2023/01/13 16:37:59;;;;;;;3.40;1.05;;;19.90;51.70;;;;;;6298165;28;20434;-69
2023/01/13 16:41:00;;;;;;;3.38;1.10;;;19.90;51.30;;;;;;6321236;28;20469;-69
2023/01/13 16:44:04;;;;;;;2.95;1.00;;;19.90;51.20;;;;;;6322385;28;20024;-70
2023/01/13 16:47:05;;;;;;;3.83;1.20;;;19.90;51.90;;;;;;6323131;28;20058;-68
2023/01/13 16:50:16;;;;;;;2.60;1.00;;;19.90;52.00;;;;;;6316421;28;20024;-69
2023/01/13 16:53:16;;;;;;;3.78;1.33;;;19.90;52.10;;;;;;6296421;28;20013;-70
2023/01/13 16:56:30;;;;;;;3.35;1.30;;;19.90;51.80;;;;;;6298299;28;20048;-69
2023/01/13 16:59:31;;;;;;;3.33;1.02;;;19.90;52.10;;;;;;6289130;28;20408;-69
2023/01/13 17:02:32;;;;;;;3.35;1.27;;;20.00;52.30;;;;;;6297997;28;20100;-69
2023/01/13 17:05:32;;;;;;;2.60;1.08;;;19.90;52.10;;;;;;6310145;28;20027;-69
2023/01/13 17:08:33;;;;;;;3.83;1.10;;;20.00;52.40;;;;;;6322044;28;20370;-70
2023/01/13 17:11:34;;;;;;;3.10;0.98;;;20.00;52.20;;;;;;6306699;28;20028;-70
2023/01/13 17:14:34;;;;;;;1.83;1.08;;;20.00;52.40;;;;;;6296002;28;20020;-69
2023/01/13 17:17:35;;;;;;;3.47;1.20;;;20.00;52.90;;;;;;6293080;28;20023;-70